Latest Coastal Weather Observations for Swan Island

IDT60701

Issued at 11:05 pm EST Wednesday 30 July 2014 (issued every 10 minutes, with the page automatically refreshed every 10 minutes)

About coastal observations | Map of coastal stations | Coastal observations for TAS | Marine services | Other Formats
Station Details ID: 092123 Name: SWAN ISLAND Lat: -40.73 Lon: 148.12 Height: 15.0 m
Data from the previous 72 hours. | See also: Recent months at Swan Island
Date/Time
EST
Temp

°C
Wind Pressure Rain
since 9am
mm
Weather Cloud Vis
km
Sea
Height
m
Swell
Dir
 
Speed
knots
Gust
knots
hPa Trend Height
m
Period
s
Dir
30/11:02pm 13.3 NW 27 38 1000.6 - 3.6 - - - - - - -
30/11:00pm 13.3 NW 28 36 1000.5 - 3.6 - - - - - - -
30/10:30pm 12.7 NW 30 41 1000.6 - 3.6 - - - - - - -
30/10:13pm 13.4 NW 28 43 1000.7 - 3.4 - - - - - - -
30/10:00pm 13.6 NW 29 37 1000.9 - 3.2 - - - - - - -
30/09:30pm 13.3 NW 22 28 1001.3 - 3.2 - - - - - - -
30/09:05pm 13.1 NW 24 34 1001.7 - 3.2 - - - - - - -
30/09:00pm 13.1 WNW 27 34 1001.8 - 3.2 Recent precip. - - - - - -
30/08:30pm 13.2 NW 22 32 1001.9 - 3.0 - - - - - - -
30/08:26pm 13.3 NW 22 32 1002.2 - 3.0 - - - - - - -
30/08:00pm 13.5 NW 24 32 1002.0 - 2.8 - - - - - - -
30/07:49pm 13.4 NW 24 35 1002.0 - 2.8 - - - - - - -
30/07:30pm 13.4 NW 24 32 1002.2 - 2.8 - - - - - - -
30/07:00pm 13.4 NW 25 34 1002.1 - 2.8 - - - - - - -
30/06:30pm 13.1 NW 29 39 1001.9 - 2.8 - - - - - - -
30/06:00pm 13.0 NW 30 41 1001.6 - 2.8 Rain - - - - - -
30/05:30pm 13.5 NW 24 34 1001.5 - 1.0 - - - - - - -
30/05:00pm 13.3 NW 26 36 1001.2 - 1.0 - - - - - - -
30/04:30pm 13.4 NW 28 40 1001.0 - 1.0 - - - - - - -
30/04:00pm 13.8 NW 28 40 1001.1 - 1.0 - - - - - - -
30/03:30pm 13.6 NW 29 40 1000.9 - 1.0 - - - - - - -
30/03:00pm 13.3 NW 26 37 1001.3 - 1.0 - - - - - - -
30/02:59pm 13.4 NW 26 37 1001.3 - 1.0 - - - - - - -
30/02:30pm 13.5 NW 26 34 1001.4 - 1.0 - - - - - - -
30/02:00pm 13.7 NW 27 38 1001.7 - 1.0 - - - - - - -
30/01:30pm 14.0 NW 26 38 1002.0 - 1.0 - - - - - - -
30/01:08pm 13.6 WNW 29 39 1002.2 - 1.0 - - - - - - -
30/01:00pm 13.3 NW 31 40 1002.2 - 1.0 - - - - - - -
30/12:52pm 13.7 NW 27 38 1002.4 - 1.0 - - - - - - -
30/12:30pm 14.1 NW 28 38 1002.5 - 1.0 - - - - - - -
30/12:00pm 13.8 WNW 21 31 1003.0 - 1.0 Recent precip. - - - - - -
30/11:51am 13.9 WNW 22 32 1002.9 - 1.0 - - - - - - -
30/11:30am 12.9 WNW 24 31 1003.5 - 1.0 - - - - - - -
30/11:06am 13.0 NW 24 37 1003.8 - 0.8 - - - - - - -
30/11:00am 13.3 NW 23 31 1003.9 - 0.8 - - - - - - -
30/10:30am 13.3 WNW 24 33 1004.0 - 0.8 - - - - - - -
30/10:00am 12.8 WNW 21 28 1004.1 - 0.8 - - - - - - -
30/09:30am 12.4 WNW 22 30 1004.0 - 0.6 - - - - - - -
30/09:00am 12.9 NW 21 28 1004.1 - 15.0 - - - - - - -
30/08:30am 12.8 NW 20 26 1003.7 - 15.0 - - - - - - -
30/08:18am 12.5 NW 21 31 1003.7 - 15.0 - - - - - - -
30/08:00am 12.5 WNW 20 29 1003.9 - 15.0 - - - - - - -
30/07:43am 12.4 WNW 19 29 1004.0 - 15.0 - - - - - - -
30/07:30am 12.3 WNW 19 25 1004.2 - 15.0 - - - - - - -
30/07:00am 11.5 WNW 16 23 1004.2 - 15.0 - - - - - - -
30/06:33am 12.4 WNW 20 30 1003.9 - 14.8 - - - - - - -
30/06:30am 12.4 WNW 22 31 1003.8 - 14.8 - - - - - - -
30/06:00am 12.6 WNW 22 29 1003.4 - 14.8 - - - - - - -
30/05:49am 12.4 WNW 22 33 1003.1 - 14.8 - - - - - - -
30/05:30am 12.6 WNW 19 29 1003.1 - 14.8 - - - - - - -
30/05:00am 12.4 WNW 22 32 1002.6 - 14.8 - - - - - - -
30/04:31am 12.6 WNW 21 32 1002.2 - 14.8 - - - - - - -
30/04:30am 12.7 WNW 21 30 1002.2 - 14.8 - - - - - - -
30/04:00am 12.7 WNW 22 35 1001.7 - 14.8 - - - - - - -
30/03:30am 12.9 WNW 24 39 1001.2 - 14.8 - - - - - - -
30/03:04am 13.1 WNW 25 38 1000.8 - 14.8 - - - - - - -
30/03:00am 13.1 WNW 24 34 1000.8 - 14.8 - - - - - - -
30/02:30am 13.1 W 24 37 1000.4 - 14.8 - - - - - - -
30/02:00am 13.0 WNW 27 37 1000.1 - 14.8 - - - - - - -
30/01:30am 12.9 WNW 29 42 999.6 - 14.8 - - - - - - -
30/01:00am 12.8 WNW 32 43 999.0 - 14.8 - - - - - - -
30/12:30am 13.3 WNW 28 42 998.6 - 14.8 - - - - - - -
30/12:00am 13.4 WNW 27 41 998.6 - 14.8 - - - - - - -
 
Date/Time
EST
Temp

°C
Wind Pressure Rain
since 9am
mm
Weather Cloud Vis
km
Sea
Height
m
Swell
Dir
 
Speed
knots
Gust
knots
hPa Trend Height
m
Period
s
Dir
29/11:30pm 12.9 WNW 28 43 998.7 - 14.8 - - - - - - -
29/11:00pm 13.1 WNW 30 41 998.3 - 14.8 - - - - - - -
29/10:30pm 12.4 WNW 28 41 998.1 - 14.8 - - - - - - -
29/10:00pm 13.1 WNW 29 46 998.1 - 13.6 - - - - - - -
29/09:30pm 13.6 WNW 30 45 997.1 - 13.6 - - - - - - -
29/09:00pm 13.9 WNW 33 49 996.8 - 13.6 - - - - - - -
29/08:30pm 13.7 WNW 34 45 996.6 - 13.6 - - - - - - -
29/08:00pm 13.6 WNW 29 42 996.0 - 13.6 - - - - - - -
29/07:30pm 13.8 WNW 33 48 995.8 - 13.6 - - - - - - -
29/07:00pm 13.4 NW 40 53 994.6 - 13.6 - - - - - - -
29/06:30pm 13.2 NW 34 45 994.8 - 13.6 - - - - - - -
29/06:00pm 12.8 NW 38 55 994.6 - 13.4 Recent precip. - - - - - -
29/05:44pm 12.6 NW 38 53 994.2 - 13.0 - - - - - - -
29/05:30pm 12.6 NW 31 43 994.5 - 10.8 - - - - - - -
29/05:16pm 12.7 NW 34 44 995.3 - 8.4 - - - - - - -
29/05:00pm 12.8 NW 35 45 994.9 - 7.0 - - - - - - -
29/04:30pm 13.1 NW 33 47 995.3 - 6.8 - - - - - - -
29/04:01pm 12.8 NW 37 48 995.5 - 6.8 - - - - - - -
29/04:00pm 12.8 NW 38 48 995.5 - 6.8 - - - - - - -
29/03:39pm 12.5 NW 36 46 995.6 - 6.6 - - - - - - -
29/03:30pm 12.4 NW 37 47 995.6 - 6.6 - - - - - - -
29/03:08pm 12.1 NW 28 41 996.5 - 6.6 - - - - - - -
29/03:00pm 12.1 NW 28 38 997.0 - 5.0 Rain - - - - - -
29/02:30pm 12.3 NW 31 41 996.5 - 1.8 - - - - - - -
29/02:00pm 13.0 NW 32 42 996.3 - 1.0 - - - - - - -
29/01:30pm 12.8 NW 35 49 996.3 - 1.0 - - - - - - -
29/01:00pm 13.2 NW 39 54 996.2 - 0.8 - - - - - - -
29/12:30pm 13.4 NW 41 53 996.3 - 0.6 - - - - - - -
29/12:00pm 12.8 NNW 34 45 997.0 - 0.6 Rain - - - - - -
29/11:30am 13.5 NNW 34 43 998.4 - 0.2 - - - - - - -
29/11:06am 13.3 NW 33 46 998.7 - 0.2 - - - - - - -
29/11:00am 13.1 NW 33 42 999.2 - 0.2 - - - - - - -
29/10:30am 12.8 NNW 35 45 999.6 - 0.2 - - - - - - -
29/10:17am 13.1 NNW 37 48 999.5 - 0.0 - - - - - - -
29/10:00am 13.6 NW 35 43 999.8 - 0.0 - - - - - - -
29/09:30am 13.6 NNW 37 49 999.8 - 0.0 - - - - - - -
29/09:02am 13.4 NNW 33 45 999.8 - 0.0 - - - - - - -
29/09:00am 13.4 NNW 33 41 999.9 - 19.2 - - - - - - -
29/08:32am 13.5 NNW 35 46 1000.3 - 19.2 - - - - - - -
29/08:30am 13.6 NNW 37 46 1000.3 - 19.2 - - - - - - -
29/08:04am 13.5 NNW 34 44 1000.1 - 19.2 - - - - - - -
29/08:00am 13.4 NNW 34 43 1000.2 - 19.2 - - - - - - -
29/07:30am 13.3 NNW 34 42 1000.4 - 19.2 - - - - - - -
29/07:00am 13.2 NNW 32 39 1000.9 - 19.2 - - - - - - -
29/06:30am 13.4 NNW 33 44 1001.2 - 19.2 - - - - - - -
29/06:26am 13.3 NNW 32 44 1001.1 - 19.2 - - - - - - -
29/06:00am 13.3 NNW 32 39 1001.3 - 19.2 - - - - - - -
29/05:37am 13.0 NW 31 42 1001.5 - 19.2 - - - - - - -
29/05:30am 13.2 NW 29 38 1001.7 - 19.2 - - - - - - -
29/05:04am 13.3 NW 28 38 1001.9 - 19.2 - - - - - - -
29/05:00am 13.2 NW 28 34 1002.0 - 19.2 - - - - - - -
29/04:30am 13.0 NNW 27 32 1002.2 - 19.2 - - - - - - -
29/04:00am 12.8 NW 31 38 1002.8 - 19.0 - - - - - - -
29/03:30am 12.9 NW 26 33 1003.3 - 19.0 - - - - - - -
29/03:00am 12.6 NW 27 34 1003.7 - 19.0 - - - - - - -
29/02:30am 12.0 NW 24 31 1004.2 - 19.0 - - - - - - -
29/02:00am 12.1 NW 25 35 1005.0 - 19.0 - - - - - - -
29/01:38am 12.3 NW 28 41 1004.7 - 18.8 - - - - - - -
29/01:30am 12.2 NW 28 34 1004.9 - 18.4 - - - - - - -
29/01:15am 10.9 WNW 15 29 1005.3 - 18.0 - - - - - - -
29/01:00am 10.8 WNW 13 20 1005.5 - 17.4 - - - - - - -
29/12:41am 10.3 WNW 16 27 1005.9 - 16.2 - - - - - - -
29/12:30am 10.1 WNW 17 23 1006.5 - 14.2 - - - - - - -
29/12:14am 9.7 WNW 22 32 1006.8 - 12.4 - - - - - - -
29/12:05am 12.2 WNW 24 33 1006.6 - 10.4 - - - - - - -
29/12:00am 13.2 NNW 26 31 1005.9 - 10.4 - - - - - - -
 
Date/Time
EST
Temp

°C
Wind Pressure Rain
since 9am
mm
Weather Cloud Vis
km
Sea
Height
m
Swell
Dir
 
Speed
knots
Gust
knots
hPa Trend Height
m
Period
s
Dir
28/11:30pm 13.0 NNW 23 27 1005.9 - 10.4 - - - - - - -
28/11:00pm 12.2 NW 19 22 1006.4 - 10.4 - - - - - - -
28/10:30pm 11.8 NNW 23 28 1006.6 - 10.4 - - - - - - -
28/10:00pm 11.7 NW 18 24 1007.4 - 10.0 - - - - - - -
28/09:30pm 11.1 WNW 17 22 1007.4 - 9.6 - - - - - - -
28/09:00pm 10.7 WNW 17 25 1008.3 - 9.4 Rain - - - - - -
28/08:39pm 11.5 W 16 27 1008.3 - 7.0 - - - - - - -
28/08:30pm 11.4 WNW 14 20 1008.0 - 5.6 - - - - - - -
28/08:00pm 10.8 WNW 13 19 1007.8 - 5.2 - - - - - - -
28/07:30pm 10.2 WNW 15 23 1008.1 - 3.6 - - - - - - -
28/07:25pm 10.2 WNW 18 29 1008.1 - 3.0 - - - - - - -
28/07:17pm 10.3 W 24 29 1008.3 - 1.6 - - - - - - -
28/07:00pm 11.9 WNW 13 18 1007.7 - 0.8 - - - - - - -
28/06:30pm 12.2 NW 20 27 1007.6 - 0.8 - - - - - - -
28/06:00pm 12.8 NW 18 24 1007.3 - 0.0 - - - - - - -
28/05:30pm 13.0 NW 20 26 1006.9 - 0.0 - - - - - - -
28/05:00pm 12.9 NW 23 29 1007.4 - 0.0 - - - - - - -
28/04:30pm 13.0 NW 19 26 1007.0 - 0.0 - - - - - - -
28/04:00pm 13.1 NW 23 29 1007.2 - 0.0 - - - - - - -
28/03:30pm 13.4 NW 24 31 1007.1 - 0.0 - - - - - - -
28/03:00pm 13.9 WNW 24 31 1007.3 - 0.0 - - - - - - -
28/02:30pm 14.0 WNW 24 30 1007.2 - 0.0 - - - - - - -
28/02:00pm 14.2 WNW 25 31 1007.2 - 0.0 - - - - - - -
28/01:30pm 14.2 WNW 26 32 1007.2 - 0.0 - - - - - - -
28/01:00pm 14.4 NW 24 30 1007.7 - 0.0 - - - - - - -
28/12:30pm 14.3 WNW 25 33 1008.1 - 0.0 - - - - - - -
28/12:00pm 14.4 NW 25 31 1008.7 - 0.0 - - - - - - -
28/11:30am 14.4 WNW 24 30 1009.1 - 0.0 - - - - - - -
28/11:00am 14.3 NW 23 31 1009.6 - 0.0 - - - - - - -
28/10:30am 14.2 NW 21 28 1009.8 - 0.0 - - - - - - -
28/10:00am 14.1 NW 22 31 1010.0 - 0.0 - - - - - - -
28/09:30am 13.9 NW 21 28 1010.2 - 0.0 - - - - - - -
28/09:00am 13.8 NW 21 28 1010.3 - 0.0 - - - - - - -
28/08:30am 13.5 NW 23 31 1010.4 - 0.0 - - - - - - -
28/08:00am 13.1 NW 20 29 1010.8 - 0.0 - - - - - - -
28/07:30am 12.9 NW 19 27 1011.0 - 0.0 - - - - - - -
28/07:00am 13.0 NW 21 29 1011.0 - 0.0 - - - - - - -
28/06:30am 13.0 NW 21 29 1010.7 - 0.0 - - - - - - -
28/06:00am 12.9 NW 21 29 1010.7 - 0.0 - - - - - - -
28/05:45am 12.9 NW 19 29 1010.7 - 0.0 - - - - - - -
28/05:30am 12.9 NW 20 27 1011.0 - 0.0 - - - - - - -
28/05:00am 12.9 NW 19 27 1011.2 - 0.0 - - - - - - -
28/04:30am 12.8 NW 19 25 1011.5 - 0.0 - - - - - - -
28/04:00am 12.9 NW 20 26 1012.0 - 0.0 - - - - - - -
28/03:30am 12.9 NW 20 27 1012.0 - 0.0 - - - - - - -
28/03:00am 12.9 NW 20 27 1012.4 - 0.0 - - - - - - -
28/02:30am 12.9 NW 21 29 1012.8 - 0.0 - - - - - - -
28/02:00am 12.9 NW 20 26 1012.9 - 0.0 - - - - - - -
28/01:30am 12.9 NW 19 26 1013.3 - 0.0 - - - - - - -
28/01:00am 12.9 NW 18 24 1013.6 - 0.0 - - - - - - -
28/12:45am 12.9 NW 17 27 1013.8 - 0.0 - - - - - - -
28/12:30am 13.0 NW 17 25 1014.0 - 0.0 - - - - - - -
28/12:00am 13.1 NW 18 24 1014.3 - 0.0 - - - - - - -
 
Date/Time
EST
Temp

°C
Wind Pressure Rain
since 9am
mm
Weather Cloud Vis
km
Sea
Height
m
Swell
Dir
 
Speed
knots
Gust
knots
hPa Trend Height
m
Period
s
Dir
27/11:30pm 13.0 NW 20 26 1014.6 - 0.0 - - - - - - -

Other Formats:

Comma delimited format used in spreadsheet applications
http://www.bom.gov.au/fwo/IDT60701/IDT60701.95985.axf

JavaScript Object Notation format (JSON) in row-major order
http://www.bom.gov.au/fwo/IDT60701/IDT60701.95985.json